Aérodrome :
LOGIN :

S'inscrire | Disclaimer

   EN    FR    IT 

 










Légende :    VFR   VFR Marginal   IFR   IFR Intensif   IFR Très Intensif
Visi : 
Plafond : 
>= 8 km
>= 3000ft
5 à 8 km
1000 à 3000 ft
1500m à 5 km
500 à 1000 ft
800 à 1500m
200 à 500 ft
< 800m
< 200 ft
Symboles :   Orages  Brouillard  Fortes neiges  Fortes précipitations  Vent > 20 kt
SIGMETs :   Divers  Orages  Givrage  Turbulence  Onde Orograph.  Cendres Volcan.






- Altitude de l'aérodrome : 27 ft
- Code IATA : PMI


LEPA - Palma de Mallorca

DERNIER METAR :
  • 070100Z 04003KT CAVOK 10/07 Q1026 NOSIG

METARs EXPIRÉS :
  • 070030Z 05003KT CAVOK 10/07 Q1026 NOSIG
  • 070000Z 03003KT CAVOK 10/07 Q1026 NOSIG
  • 062330Z 04002KT CAVOK 10/07 Q1026 NOSIG
  • 062300Z 04003KT 320V060 CAVOK 11/07 Q1026 NOSIG
  • 062230Z 05004KT CAVOK 10/07 Q1026 NOSIG
  • 062200Z 05003KT CAVOK 10/07 Q1026 NOSIG

TAF TAF LEPA
Valide du 07 à 00h jusqu'au 08 à 00h UTC


062300Z 0700/0724 04004KT 9999 FEW030 TX21/0712Z TN08/0706Z
BECMG 0710/0712 23010KT
BECMG 0718/0720 03005KT



MET'MAP, la Météo Aéronautique d'un coup d'oeil ! - Copyright ORBIFLY Décembre 2007 - Disclaimer

ORBIFLY MET'MAP TEAM :

Programmation & Développement : Alexandra Zaïnal
Sur une idée originale de : Baudouin d'Aumeries
Assistance à la programmation : Marc-Olivier Méhu
Soutien technique & logistique : Manuel Goepfert

Contact : metmap@orbifly.com




SOURCES & CREDITS :

   NOAA